sensor_id;sensor_type;location;lat;lon;timestamp;P1;durP1;ratioP1;P2;durP2;ratioP2
7334;SDS011;3708;42.632;23.378;2023-04-01T00:01:05;9.63;;;5.60;;
7334;SDS011;3708;42.632;23.378;2023-04-01T00:03:33;6.27;;;4.77;;
7334;SDS011;3708;42.632;23.378;2023-04-01T00:06:01;10.87;;;6.57;;
7334;SDS011;3708;42.632;23.378;2023-04-01T00:08:29;14.47;;;7.47;;
7334;SDS011;3708;42.632;23.378;2023-04-01T00:10:56;12.70;;;7.93;;
7334;SDS011;3708;42.632;23.378;2023-04-01T00:13:24;13.57;;;7.33;;
7334;SDS011;3708;42.632;23.378;2023-04-01T00:15:51;11.50;;;7.47;;
7334;SDS011;3708;42.632;23.378;2023-04-01T00:18:19;14.20;;;6.80;;
7334;SDS011;3708;42.632;23.378;2023-04-01T00:20:46;13.97;;;7.73;;
7334;SDS011;3708;42.632;23.378;2023-04-01T00:23:14;13.13;;;6.60;;
7334;SDS011;3708;42.632;23.378;2023-04-01T00:25:43;11.93;;;7.00;;
7334;SDS011;3708;42.632;23.378;2023-04-01T00:28:12;10.63;;;6.40;;
7334;SDS011;3708;42.632;23.378;2023-04-01T00:30:39;12.37;;;5.93;;
7334;SDS011;3708;42.632;23.378;2023-04-01T00:33:06;12.77;;;6.33;;
7334;SDS011;3708;42.632;23.378;2023-04-01T00:35:33;12.43;;;6.53;;
7334;SDS011;3708;42.632;23.378;2023-04-01T00:38:00;11.53;;;6.40;;
7334;SDS011;3708;42.632;23.378;2023-04-01T00:40:29;11.17;;;5.97;;
7334;SDS011;3708;42.632;23.378;2023-04-01T00:42:58;10.57;;;6.23;;
7334;SDS011;3708;42.632;23.378;2023-04-01T00:45:27;11.57;;;6.27;;
7334;SDS011;3708;42.632;23.378;2023-04-01T00:47:56;10.40;;;5.57;;
7334;SDS011;3708;42.632;23.378;2023-04-01T00:50:27;10.70;;;5.87;;
7334;SDS011;3708;42.632;23.378;2023-04-01T00:52:56;10.83;;;5.47;;
7334;SDS011;3708;42.632;23.378;2023-04-01T00:55:23;10.83;;;5.80;;
7334;SDS011;3708;42.632;23.378;2023-04-01T00:57:53;8.67;;;5.80;;
7334;SDS011;3708;42.632;23.378;2023-04-01T01:00:25;11.40;;;5.90;;
7334;SDS011;3708;42.632;23.378;2023-04-01T01:02:52;9.73;;;5.17;;
7334;SDS011;3708;42.632;23.378;2023-04-01T01:05:21;9.23;;;5.77;;
7334;SDS011;3708;42.632;23.378;2023-04-01T01:07:57;11.00;;;5.10;;
7334;SDS011;3708;42.632;23.378;2023-04-01T01:10:31;8.17;;;5.23;;
7334;SDS011;3708;42.632;23.378;2023-04-01T01:13:04;12.80;;;5.13;;
7334;SDS011;3708;42.632;23.378;2023-04-01T01:15:40;10.83;;;5.00;;
7334;SDS011;3708;42.632;23.378;2023-04-01T01:18:14;10.73;;;5.97;;
7334;SDS011;3708;42.632;23.378;2023-04-01T01:26:46;6.40;;;4.33;;
7334;SDS011;3708;42.632;23.378;2023-04-01T01:35:30;5.77;;;3.87;;
7334;SDS011;3708;42.632;23.378;2023-04-01T01:38:02;6.83;;;3.73;;
7334;SDS011;3708;42.632;23.378;2023-04-01T01:40:31;8.40;;;4.23;;
7334;SDS011;3708;42.632;23.378;2023-04-01T01:43:02;9.27;;;3.43;;
7334;SDS011;3708;42.632;23.378;2023-04-01T01:45:33;7.23;;;4.07;;
7334;SDS011;3708;42.632;23.378;2023-04-01T01:48:04;8.43;;;3.60;;
7334;SDS011;3708;42.632;23.378;2023-04-01T01:50:35;7.40;;;3.80;;
7334;SDS011;3708;42.632;23.378;2023-04-01T01:53:04;7.27;;;4.07;;
7334;SDS011;3708;42.632;23.378;2023-04-01T01:55:32;6.70;;;3.90;;
7334;SDS011;3708;42.632;23.378;2023-04-01T01:58:01;7.20;;;3.30;;
7334;SDS011;3708;42.632;23.378;2023-04-01T02:00:33;8.13;;;3.57;;
7334;SDS011;3708;42.632;23.378;2023-04-01T02:03:01;7.90;;;3.57;;
7334;SDS011;3708;42.632;23.378;2023-04-01T02:05:29;4.67;;;3.40;;
7334;SDS011;3708;42.632;23.378;2023-04-01T02:08:00;9.13;;;3.40;;
7334;SDS011;3708;42.632;23.378;2023-04-01T02:10:34;11.57;;;3.77;;
7334;SDS011;3708;42.632;23.378;2023-04-01T02:13:05;14.03;;;3.33;;
7334;SDS011;3708;42.632;23.378;2023-04-01T02:15:40;8.90;;;3.67;;
7334;SDS011;3708;42.632;23.378;2023-04-01T02:18:11;7.20;;;3.63;;
7334;SDS011;3708;42.632;23.378;2023-04-01T02:20:39;6.13;;;3.57;;
7334;SDS011;3708;42.632;23.378;2023-04-01T02:23:09;9.10;;;3.63;;
7334;SDS011;3708;42.632;23.378;2023-04-01T02:25:37;10.40;;;4.00;;
7334;SDS011;3708;42.632;23.378;2023-04-01T02:28:06;8.17;;;4.13;;
7334;SDS011;3708;42.632;23.378;2023-04-01T02:30:35;11.20;;;4.00;;
7334;SDS011;3708;42.632;23.378;2023-04-01T02:33:05;6.50;;;3.93;;
7334;SDS011;3708;42.632;23.378;2023-04-01T02:35:33;13.27;;;3.67;;
7334;SDS011;3708;42.632;23.378;2023-04-01T02:38:02;7.90;;;3.63;;
7334;SDS011;3708;42.632;23.378;2023-04-01T02:40:39;11.20;;;3.60;;
7334;SDS011;3708;42.632;23.378;2023-04-01T02:43:07;8.73;;;3.80;;
7334;SDS011;3708;42.632;23.378;2023-04-01T02:45:34;5.93;;;3.30;;
7334;SDS011;3708;42.632;23.378;2023-04-01T02:48:01;8.30;;;3.50;;
7334;SDS011;3708;42.632;23.378;2023-04-01T02:50:28;8.37;;;3.60;;
7334;SDS011;3708;42.632;23.378;2023-04-01T02:52:55;7.03;;;3.80;;
7334;SDS011;3708;42.632;23.378;2023-04-01T02:55:23;10.90;;;3.83;;
7334;SDS011;3708;42.632;23.378;2023-04-01T02:57:52;7.67;;;4.13;;
7334;SDS011;3708;42.632;23.378;2023-04-01T03:00:19;7.13;;;3.63;;
7334;SDS011;3708;42.632;23.378;2023-04-01T03:02:46;8.37;;;3.23;;
7334;SDS011;3708;42.632;23.378;2023-04-01T03:05:12;7.50;;;3.50;;
7334;SDS011;3708;42.632;23.378;2023-04-01T03:07:39;8.27;;;3.70;;
7334;SDS011;3708;42.632;23.378;2023-04-01T03:10:07;5.60;;;3.47;;
7334;SDS011;3708;42.632;23.378;2023-04-01T03:12:34;6.53;;;3.80;;
7334;SDS011;3708;42.632;23.378;2023-04-01T03:15:03;9.97;;;4.23;;
7334;SDS011;3708;42.632;23.378;2023-04-01T03:17:30;9.07;;;3.57;;
7334;SDS011;3708;42.632;23.378;2023-04-01T03:19:57;6.27;;;3.53;;
7334;SDS011;3708;42.632;23.378;2023-04-01T03:22:24;12.00;;;4.10;;
7334;SDS011;3708;42.632;23.378;2023-04-01T03:24:51;7.43;;;4.00;;
7334;SDS011;3708;42.632;23.378;2023-04-01T03:27:18;7.43;;;2.40;;
7334;SDS011;3708;42.632;23.378;2023-04-01T03:29:45;4.50;;;2.33;;
7334;SDS011;3708;42.632;23.378;2023-04-01T03:32:13;6.23;;;2.70;;
7334;SDS011;3708;42.632;23.378;2023-04-01T03:34:40;6.17;;;2.80;;
7334;SDS011;3708;42.632;23.378;2023-04-01T03:37:07;8.90;;;3.83;;
7334;SDS011;3708;42.632;23.378;2023-04-01T03:39:33;6.57;;;3.07;;
7334;SDS011;3708;42.632;23.378;2023-04-01T03:42:01;6.57;;;3.97;;
7334;SDS011;3708;42.632;23.378;2023-04-01T03:44:30;10.63;;;4.77;;
7334;SDS011;3708;42.632;23.378;2023-04-01T03:46:57;12.20;;;4.90;;
7334;SDS011;3708;42.632;23.378;2023-04-01T03:49:25;10.20;;;3.40;;
7334;SDS011;3708;42.632;23.378;2023-04-01T03:51:52;8.07;;;3.60;;
7334;SDS011;3708;42.632;23.378;2023-04-01T03:54:19;7.97;;;4.13;;
7334;SDS011;3708;42.632;23.378;2023-04-01T03:56:46;12.13;;;5.40;;
7334;SDS011;3708;42.632;23.378;2023-04-01T03:59:13;6.73;;;4.23;;
7334;SDS011;3708;42.632;23.378;2023-04-01T04:01:40;10.57;;;5.30;;
7334;SDS011;3708;42.632;23.378;2023-04-01T04:04:07;13.30;;;5.43;;
7334;SDS011;3708;42.632;23.378;2023-04-01T04:06:39;11.63;;;4.90;;
7334;SDS011;3708;42.632;23.378;2023-04-01T04:09:06;10.63;;;5.30;;
7334;SDS011;3708;42.632;23.378;2023-04-01T04:11:33;16.93;;;6.03;;
7334;SDS011;3708;42.632;23.378;2023-04-01T04:13:59;13.50;;;6.27;;
7334;SDS011;3708;42.632;23.378;2023-04-01T04:16:27;9.47;;;6.00;;
7334;SDS011;3708;42.632;23.378;2023-04-01T04:18:54;15.00;;;5.73;;
7334;SDS011;3708;42.632;23.378;2023-04-01T04:21:20;10.87;;;6.30;;
7334;SDS011;3708;42.632;23.378;2023-04-01T04:23:49;13.67;;;6.57;;
7334;SDS011;3708;42.632;23.378;2023-04-01T04:26:16;14.87;;;5.97;;
7334;SDS011;3708;42.632;23.378;2023-04-01T04:28:43;7.23;;;4.90;;
7334;SDS011;3708;42.632;23.378;2023-04-01T04:31:10;7.90;;;4.93;;
7334;SDS011;3708;42.632;23.378;2023-04-01T04:33:37;9.03;;;5.00;;
7334;SDS011;3708;42.632;23.378;2023-04-01T04:36:04;9.27;;;4.90;;
7334;SDS011;3708;42.632;23.378;2023-04-01T04:38:31;10.13;;;5.20;;
7334;SDS011;3708;42.632;23.378;2023-04-01T04:41:00;9.37;;;4.80;;
7334;SDS011;3708;42.632;23.378;2023-04-01T04:43:27;7.73;;;4.87;;
7334;SDS011;3708;42.632;23.378;2023-04-01T04:45:53;8.77;;;5.17;;
7334;SDS011;3708;42.632;23.378;2023-04-01T04:48:20;7.90;;;4.53;;
7334;SDS011;3708;42.632;23.378;2023-04-01T04:50:48;7.83;;;4.50;;
7334;SDS011;3708;42.632;23.378;2023-04-01T04:53:16;15.17;;;4.30;;
7334;SDS011;3708;42.632;23.378;2023-04-01T04:55:44;9.00;;;3.93;;
7334;SDS011;3708;42.632;23.378;2023-04-01T04:58:13;7.93;;;3.93;;
7334;SDS011;3708;42.632;23.378;2023-04-01T05:00:40;7.50;;;3.90;;
7334;SDS011;3708;42.632;23.378;2023-04-01T05:03:08;13.50;;;4.30;;
7334;SDS011;3708;42.632;23.378;2023-04-01T05:05:36;7.90;;;3.70;;
7334;SDS011;3708;42.632;23.378;2023-04-01T05:08:03;6.97;;;3.63;;
7334;SDS011;3708;42.632;23.378;2023-04-01T05:10:30;8.77;;;4.13;;
7334;SDS011;3708;42.632;23.378;2023-04-01T05:12:57;11.17;;;4.47;;
7334;SDS011;3708;42.632;23.378;2023-04-01T05:15:26;9.03;;;3.67;;
7334;SDS011;3708;42.632;23.378;2023-04-01T05:17:53;8.90;;;4.20;;
7334;SDS011;3708;42.632;23.378;2023-04-01T05:20:20;10.10;;;4.00;;
7334;SDS011;3708;42.632;23.378;2023-04-01T05:22:48;8.03;;;3.90;;
7334;SDS011;3708;42.632;23.378;2023-04-01T05:25:14;12.50;;;3.87;;
7334;SDS011;3708;42.632;23.378;2023-04-01T05:27:41;6.47;;;4.13;;
7334;SDS011;3708;42.632;23.378;2023-04-01T05:30:09;12.87;;;4.43;;
7334;SDS011;3708;42.632;23.378;2023-04-01T05:32:38;7.40;;;4.50;;
7334;SDS011;3708;42.632;23.378;2023-04-01T05:35:09;12.53;;;5.10;;
7334;SDS011;3708;42.632;23.378;2023-04-01T05:37:52;9.97;;;4.87;;
7334;SDS011;3708;42.632;23.378;2023-04-01T05:40:29;10.37;;;4.63;;
7334;SDS011;3708;42.632;23.378;2023-04-01T05:42:57;22.30;;;5.47;;
7334;SDS011;3708;42.632;23.378;2023-04-01T05:45:27;13.13;;;5.30;;
7334;SDS011;3708;42.632;23.378;2023-04-01T05:47:56;11.40;;;5.57;;
7334;SDS011;3708;42.632;23.378;2023-04-01T05:50:23;13.07;;;5.50;;
7334;SDS011;3708;42.632;23.378;2023-04-01T05:52:50;10.30;;;5.53;;
7334;SDS011;3708;42.632;23.378;2023-04-01T05:55:17;10.67;;;5.17;;
7334;SDS011;3708;42.632;23.378;2023-04-01T05:57:46;9.73;;;5.63;;
7334;SDS011;3708;42.632;23.378;2023-04-01T06:00:15;9.50;;;5.03;;
7334;SDS011;3708;42.632;23.378;2023-04-01T06:02:44;10.20;;;4.80;;
7334;SDS011;3708;42.632;23.378;2023-04-01T06:05:14;8.80;;;5.17;;
7334;SDS011;3708;42.632;23.378;2023-04-01T06:07:45;12.17;;;5.30;;
7334;SDS011;3708;42.632;23.378;2023-04-01T06:10:14;7.40;;;4.70;;
7334;SDS011;3708;42.632;23.378;2023-04-01T06:12:55;13.57;;;4.50;;
7334;SDS011;3708;42.632;23.378;2023-04-01T06:15:36;9.73;;;4.67;;
7334;SDS011;3708;42.632;23.378;2023-04-01T06:18:28;15.20;;;4.83;;
7334;SDS011;3708;42.632;23.378;2023-04-01T06:21:25;9.93;;;4.23;;
7334;SDS011;3708;42.632;23.378;2023-04-01T06:24:07;6.70;;;4.13;;
7334;SDS011;3708;42.632;23.378;2023-04-01T06:26:48;12.73;;;4.83;;
7334;SDS011;3708;42.632;23.378;2023-04-01T06:35:23;10.23;;;4.60;;
7334;SDS011;3708;42.632;23.378;2023-04-01T06:38:02;11.93;;;4.37;;
7334;SDS011;3708;42.632;23.378;2023-04-01T06:40:50;7.50;;;4.77;;
7334;SDS011;3708;42.632;23.378;2023-04-01T06:43:31;9.67;;;4.53;;
7334;SDS011;3708;42.632;23.378;2023-04-01T06:46:09;14.57;;;4.83;;
7334;SDS011;3708;42.632;23.378;2023-04-01T06:48:49;14.13;;;5.23;;
7334;SDS011;3708;42.632;23.378;2023-04-01T06:51:30;14.63;;;5.90;;
7334;SDS011;3708;42.632;23.378;2023-04-01T06:54:09;13.53;;;4.93;;
7334;SDS011;3708;42.632;23.378;2023-04-01T06:56:42;9.20;;;5.00;;
7334;SDS011;3708;42.632;23.378;2023-04-01T06:59:12;9.27;;;4.50;;
7334;SDS011;3708;42.632;23.378;2023-04-01T07:01:45;12.80;;;5.00;;
7334;SDS011;3708;42.632;23.378;2023-04-01T07:04:16;12.87;;;5.97;;
7334;SDS011;3708;42.632;23.378;2023-04-01T07:06:47;7.53;;;4.60;;
7334;SDS011;3708;42.632;23.378;2023-04-01T07:09:19;9.53;;;4.63;;
7334;SDS011;3708;42.632;23.378;2023-04-01T07:11:50;11.20;;;5.60;;
7334;SDS011;3708;42.632;23.378;2023-04-01T07:14:24;10.17;;;5.23;;
7334;SDS011;3708;42.632;23.378;2023-04-01T07:16:56;11.27;;;5.57;;
7334;SDS011;3708;42.632;23.378;2023-04-01T07:19:29;9.83;;;4.87;;
7334;SDS011;3708;42.632;23.378;2023-04-01T07:22:02;10.17;;;5.87;;
7334;SDS011;3708;42.632;23.378;2023-04-01T07:24:33;11.00;;;5.93;;
7334;SDS011;3708;42.632;23.378;2023-04-01T07:27:04;11.33;;;5.53;;
7334;SDS011;3708;42.632;23.378;2023-04-01T07:29:35;13.40;;;6.07;;
7334;SDS011;3708;42.632;23.378;2023-04-01T07:32:14;9.37;;;5.17;;
7334;SDS011;3708;42.632;23.378;2023-04-01T07:34:55;21.33;;;8.07;;
7334;SDS011;3708;42.632;23.378;2023-04-01T07:37:35;13.50;;;5.97;;
7334;SDS011;3708;42.632;23.378;2023-04-01T07:40:15;8.80;;;4.50;;
7334;SDS011;3708;42.632;23.378;2023-04-01T07:42:54;16.70;;;5.93;;
7334;SDS011;3708;42.632;23.378;2023-04-01T07:45:33;27.57;;;16.40;;
7334;SDS011;3708;42.632;23.378;2023-04-01T07:48:10;20.17;;;9.07;;
7334;SDS011;3708;42.632;23.378;2023-04-01T07:50:47;13.30;;;7.13;;
7334;SDS011;3708;42.632;23.378;2023-04-01T07:53:21;12.47;;;5.37;;
7334;SDS011;3708;42.632;23.378;2023-04-01T07:56:01;8.57;;;4.97;;
7334;SDS011;3708;42.632;23.378;2023-04-01T07:58:34;16.13;;;5.77;;
7334;SDS011;3708;42.632;23.378;2023-04-01T08:01:11;10.47;;;5.70;;
7334;SDS011;3708;42.632;23.378;2023-04-01T08:03:50;24.70;;;9.47;;
7334;SDS011;3708;42.632;23.378;2023-04-01T08:06:45;10.13;;;5.40;;
7334;SDS011;3708;42.632;23.378;2023-04-01T08:09:20;12.00;;;5.27;;
7334;SDS011;3708;42.632;23.378;2023-04-01T08:12:10;12.80;;;5.13;;
7334;SDS011;3708;42.632;23.378;2023-04-01T08:14:50;10.37;;;5.07;;
7334;SDS011;3708;42.632;23.378;2023-04-01T08:17:26;11.63;;;4.70;;
7334;SDS011;3708;42.632;23.378;2023-04-01T08:20:03;15.77;;;6.03;;
7334;SDS011;3708;42.632;23.378;2023-04-01T08:22:42;10.30;;;5.13;;
7334;SDS011;3708;42.632;23.378;2023-04-01T08:25:16;13.43;;;5.80;;
7334;SDS011;3708;42.632;23.378;2023-04-01T08:27:48;8.27;;;4.10;;
7334;SDS011;3708;42.632;23.378;2023-04-01T08:30:20;12.13;;;4.60;;
7334;SDS011;3708;42.632;23.378;2023-04-01T08:32:51;11.63;;;5.73;;
7334;SDS011;3708;42.632;23.378;2023-04-01T08:35:24;16.03;;;6.07;;
7334;SDS011;3708;42.632;23.378;2023-04-01T08:37:54;9.37;;;4.80;;
7334;SDS011;3708;42.632;23.378;2023-04-01T08:40:44;10.43;;;4.97;;
7334;SDS011;3708;42.632;23.378;2023-04-01T08:43:25;11.13;;;4.80;;
7334;SDS011;3708;42.632;23.378;2023-04-01T08:46:17;8.77;;;4.63;;
7334;SDS011;3708;42.632;23.378;2023-04-01T08:49:04;13.07;;;5.40;;
7334;SDS011;3708;42.632;23.378;2023-04-01T08:51:53;11.13;;;5.53;;
7334;SDS011;3708;42.632;23.378;2023-04-01T08:54:44;11.20;;;5.20;;
7334;SDS011;3708;42.632;23.378;2023-04-01T08:57:20;7.60;;;4.27;;
7334;SDS011;3708;42.632;23.378;2023-04-01T09:00:01;11.13;;;3.83;;
7334;SDS011;3708;42.632;23.378;2023-04-01T09:09:09;11.70;;;4.23;;
7334;SDS011;3708;42.632;23.378;2023-04-01T09:14:56;7.47;;;3.90;;
7334;SDS011;3708;42.632;23.378;2023-04-01T09:20:51;10.07;;;4.00;;
7334;SDS011;3708;42.632;23.378;2023-04-01T09:23:35;8.20;;;4.00;;
7334;SDS011;3708;42.632;23.378;2023-04-01T09:26:21;7.73;;;3.43;;
7334;SDS011;3708;42.632;23.378;2023-04-01T09:28:59;11.67;;;3.63;;
7334;SDS011;3708;42.632;23.378;2023-04-01T09:31:45;10.97;;;4.33;;
7334;SDS011;3708;42.632;23.378;2023-04-01T09:34:31;13.17;;;3.90;;
7334;SDS011;3708;42.632;23.378;2023-04-01T09:37:18;13.43;;;4.20;;
7334;SDS011;3708;42.632;23.378;2023-04-01T09:39:50;7.87;;;3.33;;
7334;SDS011;3708;42.632;23.378;2023-04-01T09:42:43;8.27;;;3.70;;
7334;SDS011;3708;42.632;23.378;2023-04-01T09:48:11;12.67;;;3.80;;
7334;SDS011;3708;42.632;23.378;2023-04-01T09:50:51;12.47;;;4.40;;
7334;SDS011;3708;42.632;23.378;2023-04-01T09:53:31;15.93;;;4.00;;
7334;SDS011;3708;42.632;23.378;2023-04-01T10:02:34;13.63;;;4.00;;
7334;SDS011;3708;42.632;23.378;2023-04-01T10:05:29;8.93;;;3.63;;
7334;SDS011;3708;42.632;23.378;2023-04-01T10:11:15;14.90;;;4.10;;
7334;SDS011;3708;42.632;23.378;2023-04-01T10:17:08;6.70;;;4.20;;
7334;SDS011;3708;42.632;23.378;2023-04-01T10:20:02;13.97;;;4.07;;
7334;SDS011;3708;42.632;23.378;2023-04-01T10:22:57;8.33;;;4.37;;
7334;SDS011;3708;42.632;23.378;2023-04-01T10:28:52;7.17;;;3.70;;
7334;SDS011;3708;42.632;23.378;2023-04-01T10:31:49;7.13;;;3.70;;
7334;SDS011;3708;42.632;23.378;2023-04-01T10:40:57;8.57;;;4.45;;
7334;SDS011;3708;42.632;23.378;2023-04-01T10:56:07;9.77;;;3.60;;
7334;SDS011;3708;42.632;23.378;2023-04-01T11:14:44;8.63;;;3.10;;
7334;SDS011;3708;42.632;23.378;2023-04-01T11:20:53;7.90;;;3.23;;
7334;SDS011;3708;42.632;23.378;2023-04-01T11:23:56;4.60;;;3.37;;
7334;SDS011;3708;42.632;23.378;2023-04-01T11:26:33;12.97;;;4.17;;
7334;SDS011;3708;42.632;23.378;2023-04-01T11:29:24;10.20;;;3.10;;
7334;SDS011;3708;42.632;23.378;2023-04-01T11:32:15;6.80;;;2.20;;
7334;SDS011;3708;42.632;23.378;2023-04-01T11:34:55;4.60;;;2.23;;
7334;SDS011;3708;42.632;23.378;2023-04-01T11:37:36;5.07;;;2.10;;
7334;SDS011;3708;42.632;23.378;2023-04-01T11:40:14;4.13;;;2.13;;
7334;SDS011;3708;42.632;23.378;2023-04-01T11:42:52;14.40;;;2.80;;
7334;SDS011;3708;42.632;23.378;2023-04-01T11:45:24;4.60;;;2.17;;
7334;SDS011;3708;42.632;23.378;2023-04-01T11:48:07;6.07;;;2.40;;
7334;SDS011;3708;42.632;23.378;2023-04-01T11:50:46;7.70;;;2.10;;
7334;SDS011;3708;42.632;23.378;2023-04-01T11:53:35;6.88;;;2.28;;
7334;SDS011;3708;42.632;23.378;2023-04-01T11:56:13;5.20;;;2.67;;
7334;SDS011;3708;42.632;23.378;2023-04-01T11:59:15;4.63;;;2.87;;
7334;SDS011;3708;42.632;23.378;2023-04-01T12:01:58;7.23;;;2.77;;
7334;SDS011;3708;42.632;23.378;2023-04-01T12:07:36;6.87;;;3.00;;
7334;SDS011;3708;42.632;23.378;2023-04-01T12:10:20;9.93;;;3.43;;
7334;SDS011;3708;42.632;23.378;2023-04-01T12:12:54;7.63;;;3.97;;
7334;SDS011;3708;42.632;23.378;2023-04-01T12:15:30;10.50;;;4.17;;
7334;SDS011;3708;42.632;23.378;2023-04-01T12:18:05;7.37;;;4.13;;
7334;SDS011;3708;42.632;23.378;2023-04-01T12:20:46;9.43;;;3.47;;
7334;SDS011;3708;42.632;23.378;2023-04-01T12:23:32;7.67;;;3.30;;
7334;SDS011;3708;42.632;23.378;2023-04-01T12:26:20;6.67;;;4.30;;
7334;SDS011;3708;42.632;23.378;2023-04-01T12:29:06;5.40;;;3.23;;
7334;SDS011;3708;42.632;23.378;2023-04-01T12:31:42;7.20;;;3.70;;
7334;SDS011;3708;42.632;23.378;2023-04-01T12:34:26;11.13;;;3.23;;
7334;SDS011;3708;42.632;23.378;2023-04-01T12:37:12;6.13;;;3.43;;
7334;SDS011;3708;42.632;23.378;2023-04-01T12:39:49;8.93;;;2.90;;
7334;SDS011;3708;42.632;23.378;2023-04-01T12:42:39;4.93;;;3.03;;
7334;SDS011;3708;42.632;23.378;2023-04-01T12:45:26;6.43;;;3.17;;
7334;SDS011;3708;42.632;23.378;2023-04-01T12:48:06;7.60;;;3.50;;
7334;SDS011;3708;42.632;23.378;2023-04-01T12:51:05;8.00;;;3.97;;
7334;SDS011;3708;42.632;23.378;2023-04-01T12:54:05;9.27;;;4.07;;
7334;SDS011;3708;42.632;23.378;2023-04-01T12:56:53;8.00;;;4.23;;
7334;SDS011;3708;42.632;23.378;2023-04-01T12:59:37;10.80;;;4.10;;
7334;SDS011;3708;42.632;23.378;2023-04-01T13:02:19;9.60;;;4.00;;
7334;SDS011;3708;42.632;23.378;2023-04-01T13:05:10;10.10;;;3.97;;
7334;SDS011;3708;42.632;23.378;2023-04-01T13:10:33;7.77;;;3.90;;
7334;SDS011;3708;42.632;23.378;2023-04-01T13:13:14;15.00;;;4.57;;
7334;SDS011;3708;42.632;23.378;2023-04-01T13:15:56;7.13;;;3.97;;
7334;SDS011;3708;42.632;23.378;2023-04-01T13:18:29;5.70;;;3.53;;
7334;SDS011;3708;42.632;23.378;2023-04-01T13:21:08;9.03;;;4.10;;
7334;SDS011;3708;42.632;23.378;2023-04-01T13:23:49;9.80;;;4.00;;
7334;SDS011;3708;42.632;23.378;2023-04-01T13:26:28;5.60;;;3.57;;
7334;SDS011;3708;42.632;23.378;2023-04-01T13:29:03;8.87;;;2.80;;
7334;SDS011;3708;42.632;23.378;2023-04-01T13:31:41;2.60;;;1.70;;
7334;SDS011;3708;42.632;23.378;2023-04-01T13:34:22;2.23;;;1.77;;
7334;SDS011;3708;42.632;23.378;2023-04-01T13:37:04;4.10;;;2.20;;
7334;SDS011;3708;42.632;23.378;2023-04-01T13:39:48;2.03;;;1.77;;
7334;SDS011;3708;42.632;23.378;2023-04-01T13:42:26;2.00;;;1.50;;
7334;SDS011;3708;42.632;23.378;2023-04-01T13:45:00;1.90;;;1.23;;
7334;SDS011;3708;42.632;23.378;2023-04-01T13:47:37;2.00;;;1.37;;
7334;SDS011;3708;42.632;23.378;2023-04-01T13:50:26;2.63;;;1.70;;
7334;SDS011;3708;42.632;23.378;2023-04-01T13:53:15;3.40;;;1.50;;
7334;SDS011;3708;42.632;23.378;2023-04-01T13:56:06;2.07;;;1.30;;
7334;SDS011;3708;42.632;23.378;2023-04-01T14:01:35;6.37;;;1.97;;
7334;SDS011;3708;42.632;23.378;2023-04-01T14:07:19;6.07;;;2.25;;
7334;SDS011;3708;42.632;23.378;2023-04-01T14:09:59;2.92;;;2.25;;
7334;SDS011;3708;42.632;23.378;2023-04-01T14:12:39;6.18;;;3.55;;
7334;SDS011;3708;42.632;23.378;2023-04-01T14:18:11;7.13;;;3.57;;
7334;SDS011;3708;42.632;23.378;2023-04-01T14:20:51;5.07;;;3.70;;
7334;SDS011;3708;42.632;23.378;2023-04-01T14:23:41;6.40;;;3.17;;
7334;SDS011;3708;42.632;23.378;2023-04-01T14:26:26;5.30;;;3.27;;
7334;SDS011;3708;42.632;23.378;2023-04-01T14:29:03;5.83;;;3.37;;
7334;SDS011;3708;42.632;23.378;2023-04-01T14:31:46;4.27;;;2.90;;
7334;SDS011;3708;42.632;23.378;2023-04-01T14:34:25;5.57;;;2.90;;
7334;SDS011;3708;42.632;23.378;2023-04-01T14:37:17;5.57;;;3.37;;
7334;SDS011;3708;42.632;23.378;2023-04-01T14:42:59;7.43;;;2.80;;
7334;SDS011;3708;42.632;23.378;2023-04-01T14:45:40;4.23;;;3.17;;
7334;SDS011;3708;42.632;23.378;2023-04-01T14:48:30;6.90;;;3.60;;
7334;SDS011;3708;42.632;23.378;2023-04-01T14:51:03;5.40;;;3.27;;
7334;SDS011;3708;42.632;23.378;2023-04-01T14:53:38;5.03;;;2.87;;
7334;SDS011;3708;42.632;23.378;2023-04-01T14:56:10;4.77;;;2.90;;
7334;SDS011;3708;42.632;23.378;2023-04-01T14:58:44;6.00;;;3.37;;
7334;SDS011;3708;42.632;23.378;2023-04-01T15:01:28;8.63;;;3.43;;
7334;SDS011;3708;42.632;23.378;2023-04-01T15:04:11;6.70;;;2.83;;
7334;SDS011;3708;42.632;23.378;2023-04-01T15:07:06;5.87;;;2.90;;
7334;SDS011;3708;42.632;23.378;2023-04-01T15:09:50;6.20;;;3.07;;
7334;SDS011;3708;42.632;23.378;2023-04-01T15:12:29;6.03;;;2.80;;
7334;SDS011;3708;42.632;23.378;2023-04-01T15:15:03;4.40;;;2.40;;
7334;SDS011;3708;42.632;23.378;2023-04-01T15:17:43;4.80;;;2.50;;
7334;SDS011;3708;42.632;23.378;2023-04-01T15:23:32;5.43;;;3.10;;
7334;SDS011;3708;42.632;23.378;2023-04-01T15:29:23;5.67;;;3.27;;
7334;SDS011;3708;42.632;23.378;2023-04-01T15:32:11;6.77;;;3.23;;
7334;SDS011;3708;42.632;23.378;2023-04-01T15:34:45;10.30;;;3.57;;
7334;SDS011;3708;42.632;23.378;2023-04-01T15:37:23;9.30;;;4.03;;
7334;SDS011;3708;42.632;23.378;2023-04-01T15:40:00;8.87;;;3.60;;
7334;SDS011;3708;42.632;23.378;2023-04-01T15:42:44;8.83;;;3.37;;
7334;SDS011;3708;42.632;23.378;2023-04-01T15:45:26;10.77;;;3.23;;
7334;SDS011;3708;42.632;23.378;2023-04-01T15:48:02;6.00;;;3.33;;
7334;SDS011;3708;42.632;23.378;2023-04-01T15:50:48;5.20;;;3.30;;
7334;SDS011;3708;42.632;23.378;2023-04-01T15:53:44;9.23;;;4.23;;
7334;SDS011;3708;42.632;23.378;2023-04-01T15:59:19;3.23;;;1.60;;
7334;SDS011;3708;42.632;23.378;2023-04-01T16:01:58;5.83;;;1.70;;
7334;SDS011;3708;42.632;23.378;2023-04-01T16:04:36;4.53;;;2.33;;
7334;SDS011;3708;42.632;23.378;2023-04-01T16:07:17;2.07;;;1.87;;
7334;SDS011;3708;42.632;23.378;2023-04-01T16:09:56;3.37;;;2.30;;
7334;SDS011;3708;42.632;23.378;2023-04-01T16:12:36;4.47;;;2.30;;
7334;SDS011;3708;42.632;23.378;2023-04-01T16:15:17;3.37;;;2.40;;
7334;SDS011;3708;42.632;23.378;2023-04-01T16:18:09;4.23;;;2.60;;
7334;SDS011;3708;42.632;23.378;2023-04-01T16:21:00;6.87;;;2.50;;
7334;SDS011;3708;42.632;23.378;2023-04-01T16:23:35;5.33;;;2.50;;
7334;SDS011;3708;42.632;23.378;2023-04-01T16:26:07;2.40;;;2.20;;
7334;SDS011;3708;42.632;23.378;2023-04-01T16:28:40;3.43;;;2.10;;
7334;SDS011;3708;42.632;23.378;2023-04-01T16:31:25;2.83;;;2.60;;
7334;SDS011;3708;42.632;23.378;2023-04-01T16:34:01;6.63;;;3.30;;
7334;SDS011;3708;42.632;23.378;2023-04-01T16:36:35;2.83;;;2.53;;
7334;SDS011;3708;42.632;23.378;2023-04-01T16:39:17;3.50;;;2.70;;
7334;SDS011;3708;42.632;23.378;2023-04-01T16:41:57;4.67;;;2.27;;
7334;SDS011;3708;42.632;23.378;2023-04-01T16:44:44;2.80;;;2.47;;
7334;SDS011;3708;42.632;23.378;2023-04-01T16:47:17;3.77;;;2.50;;
7334;SDS011;3708;42.632;23.378;2023-04-01T16:49:50;2.23;;;2.00;;
7334;SDS011;3708;42.632;23.378;2023-04-01T16:52:35;2.97;;;2.23;;
7334;SDS011;3708;42.632;23.378;2023-04-01T16:55:15;2.87;;;2.40;;
7334;SDS011;3708;42.632;23.378;2023-04-01T16:57:46;2.90;;;2.30;;
7334;SDS011;3708;42.632;23.378;2023-04-01T17:00:19;2.37;;;2.03;;
7334;SDS011;3708;42.632;23.378;2023-04-01T17:02:54;2.67;;;2.03;;
7334;SDS011;3708;42.632;23.378;2023-04-01T17:05:36;2.67;;;2.10;;
7334;SDS011;3708;42.632;23.378;2023-04-01T17:08:12;2.80;;;1.87;;
7334;SDS011;3708;42.632;23.378;2023-04-01T17:10:53;2.47;;;1.70;;
7334;SDS011;3708;42.632;23.378;2023-04-01T17:13:34;2.10;;;1.90;;
7334;SDS011;3708;42.632;23.378;2023-04-01T17:16:10;1.70;;;1.60;;
7334;SDS011;3708;42.632;23.378;2023-04-01T17:19:08;1.70;;;1.60;;
7334;SDS011;3708;42.632;23.378;2023-04-01T17:21:49;2.60;;;1.93;;
7334;SDS011;3708;42.632;23.378;2023-04-01T17:24:38;3.67;;;1.87;;
7334;SDS011;3708;42.632;23.378;2023-04-01T17:27:18;2.83;;;2.03;;
7334;SDS011;3708;42.632;23.378;2023-04-01T17:29:58;1.70;;;1.60;;
7334;SDS011;3708;42.632;23.378;2023-04-01T17:32:36;2.07;;;1.87;;
7334;SDS011;3708;42.632;23.378;2023-04-01T17:35:16;1.87;;;1.67;;
7334;SDS011;3708;42.632;23.378;2023-04-01T17:37:51;1.70;;;1.60;;
7334;SDS011;3708;42.632;23.378;2023-04-01T17:40:29;1.80;;;1.70;;
7334;SDS011;3708;42.632;23.378;2023-04-01T17:43:06;2.67;;;1.87;;